createdAt,value
2017-07-17T00:00:29.230Z,0
2017-07-17T00:01:38.513Z,0
2017-07-17T00:02:47.177Z,0
2017-07-17T00:03:56.141Z,0
2017-07-17T00:05:05.115Z,0
2017-07-17T00:06:14.403Z,0
2017-07-17T00:07:23.696Z,0
2017-07-17T00:08:32.677Z,0
2017-07-17T00:09:42.104Z,0
2017-07-17T00:10:50.758Z,0
2017-07-17T00:12:00.037Z,0
2017-07-17T00:13:08.688Z,0
2017-07-17T00:14:18.596Z,0
2017-07-17T00:15:27.713Z,0
2017-07-17T00:16:37.317Z,0
2017-07-17T00:17:46.619Z,0
2017-07-17T00:18:55.606Z,0
2017-07-17T00:20:04.904Z,0
2017-07-17T00:21:14.550Z,0
2017-07-17T00:22:24.173Z,0
2017-07-17T00:23:33.160Z,0
2017-07-17T00:24:42.131Z,0
2017-07-17T00:25:51.755Z,0
2017-07-17T00:27:00.780Z,0
2017-07-17T00:28:10.379Z,0
2017-07-17T00:29:19.359Z,0
2017-07-17T00:30:28.641Z,0
2017-07-17T00:31:37.621Z,0
2017-07-17T00:32:46.593Z,0
2017-07-17T00:33:55.881Z,0
2017-07-17T00:35:04.852Z,0
2017-07-17T00:36:13.820Z,0
2017-07-17T00:37:22.858Z,0
2017-07-17T00:38:32.322Z,0
2017-07-17T00:39:42.241Z,0
2017-07-17T00:40:51.532Z,0
2017-07-17T00:42:00.507Z,0
2017-07-17T00:43:09.475Z,0
2017-07-17T00:44:18.462Z,0
2017-07-17T00:45:27.124Z,0
2017-07-17T00:46:36.725Z,0
2017-07-17T00:47:46.313Z,0
2017-07-17T00:48:54.969Z,0
2017-07-17T00:50:03.667Z,0
2017-07-17T00:51:12.650Z,0
2017-07-17T00:52:21.627Z,0
2017-07-17T00:53:30.600Z,0
2017-07-17T00:54:39.574Z,0
2017-07-17T00:55:48.695Z,0
2017-07-17T00:56:57.379Z,0
2017-07-17T00:58:06.368Z,0
2017-07-17T00:59:15.034Z,0
2017-07-17T01:00:23.685Z,0
2017-07-17T01:01:33.177Z,0
2017-07-17T01:02:42.517Z,0
2017-07-17T01:03:51.814Z,0
2017-07-17T01:05:00.774Z,0
2017-07-17T01:06:09.756Z,0
2017-07-17T01:07:18.755Z,0
2017-07-17T01:08:27.733Z,0
2017-07-17T01:09:37.013Z,0
2017-07-17T01:10:45.974Z,0
2017-07-17T01:11:55.255Z,0
2017-07-17T01:13:04.544Z,0
2017-07-17T01:14:14.155Z,0
2017-07-17T01:15:22.809Z,0
2017-07-17T01:16:31.840Z,0
2017-07-17T01:17:41.120Z,0
2017-07-17T01:18:50.259Z,0
2017-07-17T01:19:59.224Z,0
2017-07-17T01:21:08.192Z,0
2017-07-17T01:22:17.160Z,0
2017-07-17T01:23:26.139Z,0
2017-07-17T01:24:34.890Z,0
2017-07-17T01:25:43.884Z,0
2017-07-17T01:26:52.896Z,0
2017-07-17T01:28:02.187Z,0
2017-07-17T01:29:10.844Z,0
2017-07-17T01:30:19.794Z,0
2017-07-17T01:31:29.453Z,0
2017-07-17T01:32:38.411Z,0
2017-07-17T01:33:47.079Z,0
2017-07-17T01:34:56.057Z,0
2017-07-17T01:36:04.859Z,0
2017-07-17T01:37:13.508Z,0
2017-07-17T01:38:22.158Z,0
2017-07-17T01:39:31.123Z,0
2017-07-17T01:40:39.776Z,0
2017-07-17T01:41:49.096Z,0
2017-07-17T01:42:58.685Z,0
2017-07-17T01:44:07.644Z,0
2017-07-17T01:45:16.606Z,0
2017-07-17T01:46:25.577Z,0
2017-07-17T01:47:34.872Z,0
2017-07-17T01:48:44.169Z,0
2017-07-17T01:49:53.460Z,0
2017-07-17T01:51:02.430Z,0
2017-07-17T01:52:11.403Z,0
2017-07-17T01:53:20.214Z,0
2017-07-17T01:54:29.175Z,0
2017-07-17T01:55:38.143Z,0
2017-07-17T01:56:47.102Z,0
2017-07-17T01:57:56.694Z,0
2017-07-17T01:59:05.974Z,0
2017-07-17T02:00:14.951Z,0
2017-07-17T02:01:23.919Z,0
2017-07-17T02:02:32.887Z,0
2017-07-17T02:03:41.546Z,0
2017-07-17T02:04:50.346Z,0
2017-07-17T02:05:59.328Z,0
2017-07-17T02:07:07.986Z,0
2017-07-17T02:08:17.267Z,0
2017-07-17T02:09:25.934Z,0
2017-07-17T02:10:35.090Z,0
2017-07-17T02:11:44.053Z,0
2017-07-17T02:12:53.051Z,0
2017-07-17T02:14:02.048Z,0
2017-07-17T02:15:11.023Z,0
2017-07-17T02:16:20.003Z,0
2017-07-17T02:17:28.962Z,0
2017-07-17T02:18:37.936Z,0
2017-07-17T02:19:47.531Z,0
2017-07-17T02:20:56.517Z,0
2017-07-17T02:22:05.523Z,0
2017-07-17T02:23:14.494Z,0
2017-07-17T02:24:23.150Z,0
2017-07-17T02:25:32.111Z,0
2017-07-17T02:26:41.390Z,0
2017-07-17T02:27:50.471Z,0
2017-07-17T02:28:59.753Z,0
2017-07-17T02:30:08.424Z,0
2017-07-17T02:31:17.402Z,0
2017-07-17T02:32:26.066Z,0
2017-07-17T02:33:35.353Z,0
2017-07-17T02:34:43.998Z,0
2017-07-17T02:35:53.595Z,0
2017-07-17T02:37:02.562Z,0
2017-07-17T02:38:11.216Z,0
2017-07-17T02:39:21.163Z,0
2017-07-17T02:40:30.446Z,0
2017-07-17T02:41:39.414Z,0
2017-07-17T02:42:48.068Z,0
2017-07-17T02:43:57.032Z,0
2017-07-17T02:45:06.418Z,0
2017-07-17T02:46:15.066Z,0
2017-07-17T02:47:24.029Z,0
2017-07-17T02:48:32.684Z,0
2017-07-17T02:49:41.661Z,0
2017-07-17T02:50:51.142Z,0
2017-07-17T02:52:00.122Z,0
2017-07-17T02:53:09.395Z,0
2017-07-17T02:54:18.697Z,0
2017-07-17T02:55:28.001Z,0
2017-07-17T02:56:37.082Z,0
2017-07-17T02:57:45.744Z,0
2017-07-17T02:58:55.031Z,0
2017-07-17T03:00:03.995Z,0
2017-07-17T03:01:13.301Z,0
2017-07-17T03:02:22.312Z,0
2017-07-17T03:03:31.275Z,0
2017-07-17T03:04:40.866Z,0
2017-07-17T03:05:49.823Z,0
2017-07-17T03:06:58.789Z,0
2017-07-17T03:08:07.878Z,0
2017-07-17T03:09:17.472Z,0
2017-07-17T03:10:26.200Z,0
2017-07-17T03:11:35.504Z,0
2017-07-17T03:12:44.787Z,0
2017-07-17T03:13:53.865Z,0
2017-07-17T03:15:02.847Z,0
2017-07-17T03:16:12.445Z,0
2017-07-17T03:17:21.743Z,0
2017-07-17T03:18:31.028Z,0
2017-07-17T03:19:39.991Z,0
2017-07-17T03:20:49.594Z,0
2017-07-17T03:21:58.314Z,0
2017-07-17T03:23:07.610Z,0
2017-07-17T03:26:49.625Z,0
2017-07-17T03:27:59.222Z,0
2017-07-17T03:29:08.835Z,0
2017-07-17T03:30:17.798Z,0
2017-07-17T03:31:26.759Z,0
2017-07-17T03:32:35.886Z,0
2017-07-17T03:33:44.554Z,0
2017-07-17T03:34:53.232Z,0
2017-07-17T03:36:02.205Z,0
2017-07-17T03:37:11.186Z,0
2017-07-17T03:38:20.506Z,0
2017-07-17T03:42:01.855Z,0
2017-07-17T03:43:11.143Z,0
2017-07-17T03:44:20.127Z,0
2017-07-17T03:45:29.722Z,0
2017-07-17T03:49:11.207Z,0
2017-07-17T03:50:20.489Z,0
2017-07-17T03:51:29.477Z,0
2017-07-17T03:52:38.436Z,0
2017-07-17T03:53:47.412Z,0
2017-07-17T03:54:57.114Z,0
2017-07-17T03:56:05.764Z,0
2017-07-17T03:57:15.064Z,0
2017-07-17T03:58:24.040Z,0
2017-07-17T04:02:06.047Z,0
2017-07-17T04:03:15.322Z,0
2017-07-17T04:06:56.974Z,0
2017-07-17T04:10:39.812Z,0
2017-07-17T04:14:21.437Z,0
2017-07-17T04:15:31.039Z,0
2017-07-17T04:16:39.697Z,0
2017-07-17T04:17:48.743Z,0
2017-07-17T04:18:57.728Z,0
2017-07-17T04:20:07.329Z,0
2017-07-17T04:23:48.343Z,0
2017-07-17T04:24:57.628Z,0
2017-07-17T04:26:06.772Z,0
2017-07-17T04:27:15.480Z,0
2017-07-17T04:28:24.126Z,0
2017-07-17T04:29:33.413Z,0
2017-07-17T04:30:42.375Z,0
2017-07-17T04:31:51.186Z,0
2017-07-17T04:32:59.846Z,0
2017-07-17T04:34:08.501Z,0
2017-07-17T04:35:17.476Z,0
2017-07-17T04:36:26.757Z,0
2017-07-17T04:37:35.774Z,0
2017-07-17T04:38:44.736Z,0
2017-07-17T04:39:54.024Z,0
2017-07-17T04:41:03.304Z,0
2017-07-17T04:42:12.602Z,0
2017-07-17T04:43:21.721Z,0
2017-07-17T04:44:31.018Z,0
2017-07-17T04:45:39.669Z,0
2017-07-17T04:46:48.951Z,0
2017-07-17T04:47:57.920Z,0
2017-07-17T04:49:06.978Z,0
2017-07-17T04:50:15.642Z,0
2017-07-17T04:51:24.936Z,0
2017-07-17T04:52:34.555Z,0
2017-07-17T04:53:43.198Z,0
2017-07-17T04:54:52.157Z,0
2017-07-17T04:56:01.124Z,0
2017-07-17T04:57:10.739Z,5
2017-07-17T04:58:20.021Z,5
2017-07-17T04:59:28.981Z,5
2017-07-17T05:00:38.683Z,5
2017-07-17T05:01:47.658Z,5
2017-07-17T05:02:56.936Z,5
2017-07-17T05:04:06.544Z,5
2017-07-17T05:05:16.152Z,5
2017-07-17T05:06:25.220Z,5
2017-07-17T05:07:33.866Z,5
2017-07-17T05:08:43.152Z,5
2017-07-17T05:09:51.809Z,5
2017-07-17T05:11:00.781Z,5
2017-07-17T05:12:10.554Z,5
2017-07-17T05:13:19.839Z,5
2017-07-17T05:14:29.436Z,5
2017-07-17T05:15:38.087Z,5
2017-07-17T05:16:47.366Z,5
2017-07-17T05:17:56.945Z,5
2017-07-17T05:19:05.920Z,5
2017-07-17T05:20:14.583Z,5
2017-07-17T05:21:24.193Z,5
2017-07-17T05:22:32.845Z,5
2017-07-17T05:23:41.809Z,5
2017-07-17T05:24:51.088Z,5
2017-07-17T05:26:00.060Z,5
2017-07-17T05:27:09.028Z,5
2017-07-17T05:28:18.696Z,5
2017-07-17T05:29:27.974Z,5
2017-07-17T05:30:37.577Z,5
2017-07-17T05:31:46.552Z,5
2017-07-17T05:32:55.833Z,5
2017-07-17T05:34:05.109Z,5
2017-07-17T05:35:14.702Z,5
2017-07-17T05:36:23.360Z,5
2017-07-17T05:37:32.642Z,5
2017-07-17T05:38:41.602Z,5
2017-07-17T05:39:50.578Z,5
2017-07-17T05:40:59.384Z,5
2017-07-17T05:42:08.442Z,5
2017-07-17T05:43:17.723Z,5
2017-07-17T05:44:26.379Z,5
2017-07-17T05:45:35.051Z,5
2017-07-17T05:46:44.493Z,5
2017-07-17T05:47:53.800Z,5
2017-07-17T05:49:02.774Z,5
2017-07-17T05:50:11.433Z,5
2017-07-17T05:51:20.393Z,5
2017-07-17T05:52:29.534Z,5
2017-07-17T05:53:38.828Z,5
2017-07-17T05:54:48.418Z,5
2017-07-17T05:55:57.068Z,5
2017-07-17T05:57:06.083Z,5
2017-07-17T05:58:15.164Z,5
2017-07-17T05:59:24.460Z,5
2017-07-17T06:00:33.437Z,5
2017-07-17T06:01:42.096Z,5
2017-07-17T06:02:51.697Z,5
2017-07-17T06:04:00.828Z,5
2017-07-17T06:05:09.482Z,5
2017-07-17T06:06:18.756Z,5
2017-07-17T06:07:28.033Z,5
2017-07-17T06:08:37.004Z,5
2017-07-17T06:09:46.381Z,5
2017-07-17T06:10:55.660Z,0
2017-07-17T06:12:04.940Z,0
2017-07-17T06:13:13.620Z,5
2017-07-17T06:14:22.588Z,5
2017-07-17T06:15:31.939Z,5
2017-07-17T06:16:41.218Z,5
2017-07-17T06:17:50.193Z,5
2017-07-17T06:18:59.475Z,0
2017-07-17T06:20:08.127Z,0
2017-07-17T06:21:17.705Z,0
2017-07-17T06:22:26.681Z,0
2017-07-17T06:23:35.653Z,0
2017-07-17T06:24:44.641Z,0
2017-07-17T06:25:53.937Z,0
2017-07-17T06:27:03.256Z,0
2017-07-17T06:28:11.904Z,0
2017-07-17T06:29:21.536Z,0
2017-07-17T06:30:30.181Z,0
2017-07-17T06:31:39.151Z,0
2017-07-17T06:32:47.968Z,5
2017-07-17T06:33:56.610Z,5
2017-07-17T06:35:05.285Z,5
2017-07-17T06:36:13.930Z,5
2017-07-17T06:37:23.227Z,5
2017-07-17T06:38:32.060Z,5
2017-07-17T06:39:41.668Z,5
2017-07-17T06:40:50.658Z,5
2017-07-17T06:42:00.452Z,5
2017-07-17T06:43:09.739Z,5
2017-07-17T06:44:19.225Z,5
2017-07-17T06:45:27.879Z,5
2017-07-17T06:46:37.486Z,0
2017-07-17T06:47:46.789Z,0
2017-07-17T06:48:56.068Z,0
2017-07-17T06:50:05.084Z,5
2017-07-17T06:51:14.041Z,5
2017-07-17T06:52:23.007Z,0
2017-07-17T06:53:31.659Z,5
2017-07-17T06:54:40.324Z,0
2017-07-17T06:55:49.445Z,5
2017-07-17T06:56:59.104Z,5
2017-07-17T06:58:08.066Z,5
2017-07-17T06:59:17.035Z,5
2017-07-17T07:00:25.711Z,5
2017-07-17T07:01:34.781Z,5
2017-07-17T07:02:44.072Z,5
2017-07-17T07:03:52.738Z,5
2017-07-17T07:05:01.716Z,5
2017-07-17T07:06:11.024Z,5
2017-07-17T07:07:19.678Z,5
2017-07-17T07:08:28.967Z,10
2017-07-17T07:09:38.258Z,10
2017-07-17T07:10:47.858Z,5
2017-07-17T07:11:56.850Z,10
2017-07-17T07:13:05.817Z,5
2017-07-17T07:14:14.793Z,5
2017-07-17T07:15:23.765Z,10
2017-07-17T07:16:33.042Z,10
2017-07-17T07:17:42.002Z,10
2017-07-17T07:18:50.963Z,10
2017-07-17T07:19:59.625Z,10
2017-07-17T07:21:08.602Z,10
2017-07-17T07:22:17.247Z,10
2017-07-17T07:23:26.203Z,10
2017-07-17T07:24:35.359Z,10
2017-07-17T07:25:44.967Z,10
2017-07-17T07:26:53.699Z,10
2017-07-17T07:28:03.290Z,10
2017-07-17T07:29:12.261Z,15
2017-07-17T07:30:21.912Z,15
2017-07-17T07:31:30.862Z,20
2017-07-17T07:32:39.520Z,25
2017-07-17T07:33:48.482Z,25
2017-07-17T07:34:57.138Z,25
2017-07-17T07:36:07.183Z,25
2017-07-17T07:37:16.148Z,25
2017-07-17T07:38:25.121Z,20
2017-07-17T07:39:34.397Z,15
2017-07-17T07:40:43.358Z,15
2017-07-17T07:41:52.683Z,15
2017-07-17T07:43:01.341Z,15
2017-07-17T07:44:10.303Z,10
2017-07-17T07:45:19.267Z,10
2017-07-17T07:46:28.242Z,10
2017-07-17T07:47:37.060Z,10
2017-07-17T07:48:46.033Z,10
2017-07-17T07:49:54.993Z,10
2017-07-17T07:51:03.643Z,10
2017-07-17T07:52:12.925Z,10
2017-07-17T07:53:22.041Z,10
2017-07-17T07:54:30.997Z,10
2017-07-17T07:55:40.298Z,10
2017-07-17T07:56:48.956Z,10
2017-07-17T07:57:57.934Z,10
2017-07-17T07:59:06.682Z,15
2017-07-17T08:00:15.976Z,15
2017-07-17T08:01:25.276Z,20
2017-07-17T08:02:33.917Z,25
2017-07-17T08:03:42.899Z,25
2017-07-17T08:04:52.283Z,30
2017-07-17T08:06:01.577Z,25
2017-07-17T08:07:10.543Z,25
2017-07-17T08:08:19.509Z,25
2017-07-17T08:09:28.484Z,30
2017-07-17T08:10:37.931Z,35
2017-07-17T08:11:47.212Z,30
2017-07-17T08:12:55.869Z,30
2017-07-17T08:14:05.154Z,30
2017-07-17T08:15:14.121Z,25
2017-07-17T08:16:23.150Z,25
2017-07-17T08:17:31.818Z,30
2017-07-17T08:18:41.127Z,25
2017-07-17T08:19:49.800Z,20
2017-07-17T08:20:58.757Z,15
2017-07-17T08:22:07.821Z,15
2017-07-17T08:23:16.790Z,15
2017-07-17T08:24:26.082Z,10
2017-07-17T08:25:35.084Z,10
2017-07-17T08:26:44.057Z,10
2017-07-17T08:27:52.866Z,10
2017-07-17T08:29:02.169Z,10
2017-07-17T08:30:10.826Z,10
2017-07-17T08:31:19.798Z,10
2017-07-17T08:32:28.801Z,10
2017-07-17T08:33:38.608Z,10
2017-07-17T08:34:48.230Z,10
2017-07-17T08:35:57.208Z,5
2017-07-17T08:37:06.198Z,5
2017-07-17T08:38:15.491Z,5
2017-07-17T08:39:25.247Z,5
2017-07-17T08:40:34.225Z,5
2017-07-17T08:41:43.202Z,5
2017-07-17T08:42:51.868Z,5
2017-07-17T08:44:00.868Z,5
2017-07-17T08:45:10.318Z,5
2017-07-17T08:46:19.610Z,5
2017-07-17T08:47:28.903Z,5
2017-07-17T08:48:37.889Z,5
2017-07-17T08:49:47.494Z,5
2017-07-17T08:50:57.099Z,5
2017-07-17T08:52:06.083Z,10
2017-07-17T08:53:15.052Z,5
2017-07-17T08:54:24.026Z,10
2017-07-17T08:55:32.671Z,15
2017-07-17T08:56:42.045Z,10
2017-07-17T08:57:50.689Z,10
2017-07-17T08:58:59.669Z,10
2017-07-17T09:00:08.961Z,15
2017-07-17T09:01:18.571Z,15
2017-07-17T09:02:27.888Z,15
2017-07-17T09:03:37.178Z,20
2017-07-17T09:04:46.141Z,20
2017-07-17T09:05:54.807Z,20
2017-07-17T09:07:04.437Z,20
2017-07-17T09:08:13.412Z,25
2017-07-17T09:09:22.079Z,20
2017-07-17T09:10:31.050Z,25
2017-07-17T09:11:40.649Z,20
2017-07-17T09:12:49.604Z,20
2017-07-17T09:13:58.361Z,25
2017-07-17T09:15:07.024Z,25
2017-07-17T09:16:15.693Z,30
2017-07-17T09:17:25.297Z,30
2017-07-17T09:18:33.953Z,30
2017-07-17T09:19:43.227Z,35
2017-07-17T09:20:51.914Z,30
2017-07-17T09:22:00.917Z,25
2017-07-17T09:23:09.891Z,25
2017-07-17T09:24:18.554Z,20
2017-07-17T09:25:27.918Z,20
2017-07-17T09:26:37.852Z,20
2017-07-17T09:27:46.514Z,15
2017-07-17T09:28:55.814Z,20
2017-07-17T09:30:05.111Z,35
2017-07-17T09:31:14.569Z,40
2017-07-17T09:32:23.243Z,40
2017-07-17T09:33:32.602Z,40
2017-07-17T09:34:41.269Z,35
2017-07-17T09:35:50.244Z,30
2017-07-17T09:36:59.268Z,30
2017-07-17T09:38:08.546Z,30
2017-07-17T09:39:18.157Z,25
2017-07-17T09:40:27.142Z,25
2017-07-17T09:41:36.104Z,25
2017-07-17T09:42:45.693Z,30
2017-07-17T09:43:54.668Z,40
2017-07-17T09:45:04.602Z,40
2017-07-17T09:46:13.880Z,40
2017-07-17T09:47:22.886Z,35
2017-07-17T09:48:31.583Z,30
2017-07-17T09:49:40.895Z,25
2017-07-17T09:50:49.555Z,30
2017-07-17T09:51:58.525Z,30
2017-07-17T09:53:07.195Z,30
2017-07-17T09:54:16.799Z,25
2017-07-17T09:55:26.090Z,30
2017-07-17T09:56:34.748Z,30
2017-07-17T09:57:44.369Z,35
2017-07-17T09:58:53.407Z,30
2017-07-17T10:00:03.173Z,30
2017-07-17T10:01:12.469Z,30
2017-07-17T10:02:21.751Z,30
2017-07-17T10:03:30.719Z,35
2017-07-17T10:04:39.998Z,40
2017-07-17T10:05:48.747Z,35
2017-07-17T10:06:58.354Z,35
2017-07-17T10:08:07.016Z,35
2017-07-17T10:09:16.301Z,30
2017-07-17T10:10:25.271Z,25
2017-07-17T10:11:34.701Z,30
2017-07-17T10:12:43.673Z,25
2017-07-17T10:13:52.650Z,25
2017-07-17T10:15:01.949Z,30
2017-07-17T10:16:11.239Z,25
2017-07-17T10:17:20.080Z,30
2017-07-17T10:18:29.405Z,30
2017-07-17T10:19:38.712Z,35
2017-07-17T10:20:48.636Z,35
2017-07-17T10:21:58.000Z,35
2017-07-17T10:23:07.486Z,30
2017-07-17T10:24:16.451Z,30
2017-07-17T10:25:25.439Z,25
2017-07-17T10:26:34.098Z,25
2017-07-17T10:27:43.104Z,30
2017-07-17T10:28:51.798Z,35
2017-07-17T10:30:01.096Z,40
2017-07-17T10:31:09.741Z,45
2017-07-17T10:32:18.740Z,40
2017-07-17T10:33:27.764Z,40
2017-07-17T10:34:37.025Z,40
2017-07-17T10:35:45.683Z,35
2017-07-17T10:36:54.967Z,35
2017-07-17T10:38:03.640Z,30
2017-07-17T10:39:12.599Z,35
2017-07-17T10:40:22.042Z,40
2017-07-17T10:41:30.691Z,45
2017-07-17T10:42:39.353Z,45
2017-07-17T10:43:48.624Z,50
2017-07-17T10:44:57.595Z,55
2017-07-17T10:46:06.567Z,65
2017-07-17T10:47:15.534Z,65
2017-07-17T10:48:24.806Z,50
2017-07-17T10:49:33.455Z,50
2017-07-17T10:50:42.427Z,50
2017-07-17T10:51:51.185Z,50
2017-07-17T10:53:00.467Z,50
2017-07-17T10:54:09.743Z,50
2017-07-17T10:55:18.377Z,50
2017-07-17T10:56:27.331Z,55
2017-07-17T10:57:36.765Z,60
2017-07-17T10:58:45.734Z,60
2017-07-17T10:59:54.709Z,65
2017-07-17T11:01:03.989Z,60
2017-07-17T11:02:12.951Z,55
2017-07-17T11:03:22.217Z,50
2017-07-17T11:04:31.810Z,50
2017-07-17T11:05:40.460Z,50
2017-07-17T11:06:49.109Z,50
2017-07-17T11:07:57.781Z,55
2017-07-17T11:09:06.816Z,55
2017-07-17T11:10:15.474Z,60
2017-07-17T11:11:25.078Z,65
2017-07-17T11:12:34.043Z,70
2017-07-17T11:13:43.049Z,70
2017-07-17T11:14:51.990Z,70
2017-07-17T11:16:00.985Z,65
2017-07-17T11:17:09.954Z,65
2017-07-17T11:18:18.919Z,65
2017-07-17T11:19:28.234Z,65
2017-07-17T11:20:37.578Z,60
2017-07-17T11:21:47.485Z,65
2017-07-17T11:22:56.135Z,55
2017-07-17T11:24:05.463Z,55
2017-07-17T11:25:14.732Z,60
2017-07-17T11:26:24.212Z,60
2017-07-17T11:27:33.175Z,65
2017-07-17T11:28:42.487Z,65
2017-07-17T11:29:51.504Z,60
2017-07-17T11:31:00.472Z,60
2017-07-17T11:32:10.368Z,60
2017-07-17T11:33:19.039Z,60
2017-07-17T11:34:28.355Z,60
2017-07-17T11:35:37.319Z,60
2017-07-17T11:36:46.291Z,55
2017-07-17T11:37:55.624Z,50
2017-07-17T11:39:04.600Z,45
2017-07-17T11:40:13.252Z,40
2017-07-17T11:41:21.897Z,45
2017-07-17T11:42:31.183Z,45
2017-07-17T11:43:40.629Z,45
2017-07-17T11:44:49.594Z,45
2017-07-17T11:56:59.531Z,50
2017-07-17T11:59:17.642Z,50
2017-07-17T12:00:26.933Z,50
2017-07-17T12:01:35.909Z,45
2017-07-17T12:02:45.818Z,45
2017-07-17T12:03:55.736Z,45
2017-07-17T12:06:13.535Z,45
2017-07-17T12:07:22.546Z,45
2017-07-17T12:08:31.510Z,45
2017-07-17T12:09:40.497Z,45
2017-07-17T12:10:50.241Z,50
2017-07-17T12:11:58.887Z,50
2017-07-17T12:13:08.174Z,55
2017-07-17T12:14:17.498Z,60
2017-07-17T12:15:26.481Z,65
2017-07-17T12:16:35.144Z,65
2017-07-17T12:17:44.104Z,70
2017-07-17T12:18:53.379Z,70
2017-07-17T12:20:02.666Z,70
2017-07-17T12:21:12.273Z,70
2017-07-17T12:22:22.341Z,70
2017-07-17T12:23:31.929Z,70
2017-07-17T12:24:40.578Z,65
2017-07-17T12:25:49.885Z,65
2017-07-17T12:26:58.851Z,65
2017-07-17T12:28:08.294Z,60
2017-07-17T12:29:17.268Z,60
2017-07-17T12:30:26.231Z,55
2017-07-17T12:31:35.516Z,55
2017-07-17T12:32:44.502Z,50
2017-07-17T12:33:53.836Z,50
2017-07-17T12:35:03.142Z,50
2017-07-17T12:36:12.448Z,50
2017-07-17T12:37:22.058Z,50
2017-07-17T12:38:31.030Z,50
2017-07-17T12:39:40.099Z,50
2017-07-17T12:40:49.393Z,50
2017-07-17T12:41:58.379Z,55
2017-07-17T12:43:07.676Z,55
2017-07-17T12:44:17.285Z,60
2017-07-17T12:45:26.351Z,65
2017-07-17T12:46:35.017Z,65
2017-07-17T12:47:44.311Z,65
2017-07-17T12:48:53.284Z,60
2017-07-17T12:50:02.564Z,60
2017-07-17T12:51:11.890Z,55
2017-07-17T12:52:20.848Z,45
2017-07-17T12:53:29.822Z,40
2017-07-17T12:54:39.735Z,35
2017-07-17T12:55:49.043Z,30
2017-07-17T12:56:58.141Z,30
2017-07-17T12:58:07.120Z,35
2017-07-17T12:59:16.430Z,45
2017-07-17T13:00:26.071Z,50
2017-07-17T13:01:34.744Z,50
2017-07-17T13:02:43.456Z,50
2017-07-17T13:03:52.431Z,50
2017-07-17T13:05:01.395Z,50
2017-07-17T13:06:10.688Z,50
2017-07-17T13:07:19.328Z,40
2017-07-17T13:08:29.406Z,40
2017-07-17T13:09:38.067Z,35
2017-07-17T13:10:47.352Z,30
2017-07-17T13:11:56.639Z,35
2017-07-17T13:13:05.929Z,35
2017-07-17T13:14:15.200Z,40
2017-07-17T13:15:24.486Z,40
2017-07-17T13:16:33.483Z,35
2017-07-17T13:17:43.098Z,35
2017-07-17T13:18:52.381Z,35
2017-07-17T13:20:02.125Z,35
2017-07-17T13:21:11.105Z,35
2017-07-17T13:22:20.398Z,35
2017-07-17T13:23:29.374Z,40
2017-07-17T13:24:38.984Z,40
2017-07-17T13:25:48.075Z,40
2017-07-17T13:26:57.057Z,40
2017-07-17T13:28:06.350Z,40
2017-07-17T13:29:15.649Z,40
2017-07-17T13:30:24.946Z,35
2017-07-17T13:31:33.750Z,35
2017-07-17T13:32:42.740Z,35
2017-07-17T13:33:52.339Z,40
2017-07-17T13:35:01.969Z,35
2017-07-17T13:36:10.946Z,35
2017-07-17T13:37:20.375Z,30
2017-07-17T13:38:29.670Z,35
2017-07-17T13:39:38.635Z,35
2017-07-17T13:40:47.618Z,35
2017-07-17T13:41:57.211Z,35
2017-07-17T13:43:06.024Z,35
2017-07-17T13:44:15.007Z,35
2017-07-17T13:45:23.672Z,40
2017-07-17T13:46:32.327Z,40
2017-07-17T13:47:41.942Z,40
2017-07-17T13:48:50.702Z,40
2017-07-17T13:50:00.004Z,40
2017-07-17T13:51:08.667Z,35
2017-07-17T13:52:17.360Z,35
2017-07-17T13:53:26.974Z,35
2017-07-17T13:54:36.740Z,35
2017-07-17T13:55:46.980Z,40
2017-07-17T13:56:56.605Z,35
2017-07-17T13:58:06.838Z,35
2017-07-17T13:59:16.150Z,30
2017-07-17T14:00:26.145Z,30
2017-07-17T14:01:36.071Z,30
2017-07-17T14:02:46.018Z,30
2017-07-17T14:03:55.946Z,30
2017-07-17T14:05:05.877Z,30
2017-07-17T14:06:15.836Z,25
2017-07-17T14:07:25.452Z,25
2017-07-17T14:08:35.395Z,25
2017-07-17T14:09:45.320Z,25
2017-07-17T14:10:54.626Z,20
2017-07-17T14:12:04.989Z,20
2017-07-17T14:13:14.305Z,20
2017-07-17T14:14:24.267Z,20
2017-07-17T14:15:33.880Z,20
2017-07-17T14:16:44.119Z,20
2017-07-17T14:17:54.371Z,20
2017-07-17T14:19:03.992Z,20
2017-07-17T14:20:13.986Z,20
2017-07-17T14:21:23.021Z,20
2017-07-17T14:22:32.958Z,20
2017-07-17T14:23:42.878Z,25
2017-07-17T14:24:52.208Z,25
2017-07-17T14:26:02.127Z,20
2017-07-17T14:27:11.743Z,25
2017-07-17T14:28:21.981Z,25
2017-07-17T14:29:32.207Z,25
2017-07-17T14:30:41.832Z,25
2017-07-17T14:31:52.072Z,25
2017-07-17T14:33:02.294Z,25
2017-07-17T14:34:11.916Z,25
2017-07-17T14:35:21.597Z,25
2017-07-17T14:36:31.255Z,20
2017-07-17T14:37:41.179Z,25
2017-07-17T14:38:51.415Z,25
2017-07-17T14:40:00.733Z,30
2017-07-17T14:41:11.122Z,25
2017-07-17T14:42:21.380Z,25
2017-07-17T14:43:30.989Z,25
2017-07-17T14:44:41.253Z,30
2017-07-17T14:45:51.511Z,30
2017-07-17T14:47:01.939Z,25
2017-07-17T14:48:11.249Z,25
2017-07-17T14:49:21.505Z,25
2017-07-17T14:50:31.742Z,20
2017-07-17T14:51:41.686Z,20
2017-07-17T14:52:51.360Z,20
2017-07-17T14:54:01.617Z,20
2017-07-17T14:55:11.538Z,20
2017-07-17T14:56:21.470Z,20
2017-07-17T14:57:30.781Z,20
2017-07-17T14:58:40.715Z,20
2017-07-17T14:59:50.336Z,25
2017-07-17T15:01:00.289Z,25
2017-07-17T15:02:10.544Z,25
2017-07-17T15:03:20.168Z,25
2017-07-17T15:04:30.094Z,25
2017-07-17T15:05:39.717Z,25
2017-07-17T15:06:49.648Z,25
2017-07-17T15:07:59.272Z,25
2017-07-17T15:09:09.198Z,25
2017-07-17T15:10:18.614Z,25
2017-07-17T15:11:28.554Z,20
2017-07-17T15:12:38.165Z,20
2017-07-17T15:13:48.408Z,20
2017-07-17T15:14:58.645Z,20
2017-07-17T15:16:08.733Z,20
2017-07-17T15:17:18.969Z,20
2017-07-17T15:18:28.903Z,20
2017-07-17T15:19:39.145Z,20
2017-07-17T15:20:48.764Z,20
2017-07-17T15:21:58.372Z,20
2017-07-17T15:23:08.600Z,20
2017-07-17T15:24:18.538Z,20
2017-07-17T15:25:28.772Z,15
2017-07-17T15:26:38.387Z,15
2017-07-17T15:27:48.461Z,15
2017-07-17T15:28:58.402Z,15
2017-07-17T15:30:08.043Z,15
2017-07-17T15:31:17.684Z,15
2017-07-17T15:32:27.624Z,20
2017-07-17T15:33:37.866Z,20
2017-07-17T15:34:47.474Z,20
2017-07-17T15:35:57.388Z,20
2017-07-17T15:37:07.607Z,20
2017-07-17T15:38:17.260Z,20
2017-07-17T15:39:27.494Z,20
2017-07-17T15:40:37.722Z,20
2017-07-17T15:41:47.939Z,15
2017-07-17T15:42:58.176Z,15
2017-07-17T15:44:08.449Z,15
2017-07-17T15:45:18.067Z,15
2017-07-17T15:46:28.003Z,15
2017-07-17T15:47:37.924Z,15
2017-07-17T15:48:47.855Z,15
2017-07-17T15:49:57.787Z,15
2017-07-17T15:51:07.559Z,15
2017-07-17T15:52:17.803Z,15
2017-07-17T15:53:27.728Z,15
2017-07-17T15:54:37.644Z,15
2017-07-17T15:55:47.899Z,15
2017-07-17T15:56:57.625Z,15
2017-07-17T15:58:07.234Z,15
2017-07-17T15:59:17.476Z,15
2017-07-17T16:00:27.094Z,15
2017-07-17T16:01:37.321Z,15
2017-07-17T16:02:47.636Z,15
2017-07-17T16:03:57.888Z,15
2017-07-17T16:05:08.114Z,15
2017-07-17T16:06:18.055Z,15
2017-07-17T16:07:27.982Z,15
2017-07-17T16:08:38.122Z,15
2017-07-17T16:09:48.038Z,15
2017-07-17T16:10:57.687Z,15
2017-07-17T16:12:07.350Z,15
2017-07-17T16:13:16.970Z,15
2017-07-17T16:14:27.099Z,15
2017-07-17T16:15:37.039Z,15
2017-07-17T16:16:47.276Z,15
2017-07-17T16:17:57.492Z,15
2017-07-17T16:19:07.151Z,15
2017-07-17T16:20:17.555Z,15
2017-07-17T16:21:27.473Z,15
2017-07-17T16:22:37.703Z,15
2017-07-17T16:23:47.356Z,15
2017-07-17T16:24:57.280Z,15
2017-07-17T16:26:07.054Z,15
2017-07-17T16:27:16.356Z,15
2017-07-17T16:28:26.639Z,15
2017-07-17T16:29:36.570Z,15
2017-07-17T16:30:46.857Z,10
2017-07-17T16:31:56.821Z,15
2017-07-17T16:33:06.758Z,15
2017-07-17T16:34:16.996Z,15
2017-07-17T16:35:26.915Z,15
2017-07-17T16:36:36.866Z,15
2017-07-17T16:37:46.318Z,10
2017-07-17T16:38:55.045Z,10
2017-07-17T16:40:04.707Z,15
2017-07-17T16:41:14.933Z,15
2017-07-17T16:42:24.915Z,15
2017-07-17T16:43:34.383Z,15
2017-07-17T16:44:44.627Z,10
2017-07-17T16:45:54.255Z,10
2017-07-17T16:47:04.189Z,10
2017-07-17T16:48:14.427Z,10
2017-07-17T16:49:24.402Z,10
2017-07-17T16:50:34.341Z,15
2017-07-17T16:51:44.275Z,10
2017-07-17T16:52:54.502Z,10
2017-07-17T16:54:04.727Z,15
2017-07-17T16:55:14.761Z,15
2017-07-17T16:56:24.697Z,15
2017-07-17T16:57:34.612Z,15
2017-07-17T16:58:44.233Z,15
2017-07-17T16:59:53.859Z,15
2017-07-17T17:01:04.268Z,15
2017-07-17T17:02:14.533Z,10
2017-07-17T17:03:24.476Z,10
2017-07-17T17:04:34.089Z,10
2017-07-17T17:05:44.320Z,10
2017-07-17T17:06:54.395Z,10
2017-07-17T17:08:04.318Z,10
2017-07-17T17:09:13.937Z,10
2017-07-17T17:10:24.189Z,10
2017-07-17T17:11:33.827Z,10
2017-07-17T17:12:44.191Z,10
2017-07-17T17:13:53.817Z,10
2017-07-17T17:15:03.754Z,10
2017-07-17T17:16:13.692Z,10